.
WxDataArchive / Data Records for 2015-06-18
2015-06-17 June 2015 2015-06-19

Data Records for Thursday, 18 June 2015

Time	Temp	Chill	HIndex	Humid	Dewpt	 Wind 	HiWind	WindDir	Rain 	Barom
-----	----	-----	------	-----	-----	------	------	-------	-----	-----
00:00	70.1	70.1	70.1	96	68.9	0	0	---	0.00	29.923 
00:05	70.1	70.1	70.1	96	68.9	0	0	---	0.00	29.923 
00:10	70.1	70.1	70.1	96	68.9	0	0	---	0.00	29.923 
00:15	70.1	70.1	70.1	96	68.9	0	0	---	0.00	29.927 
00:20	69.9	69.9	69.9	96	68.7	0	0	---	0.00	29.927 
00:25	69.9	69.9	69.9	96	68.7	0	0	---	0.00	29.927 
00:30	69.9	69.9	69.9	96	68.7	0	0	---	0.00	29.928 
00:35	69.9	69.9	69.9	96	68.7	0	0	---	0.00	29.928 
00:40	69.9	69.9	69.9	96	68.7	0	0	---	0.00	29.928 
00:45	69.9	69.9	69.9	96	68.7	0	0	---	0.00	29.933 
00:50	69.9	69.9	69.9	96	68.7	0	0	---	0.00	29.933 
00:55	69.9	69.9	69.9	96	68.7	0	0	---	0.00	29.933 
01:00	70.1	70.1	70.1	96	68.9	0	0	---	0.00	29.928 
01:05	70.3	70.3	70.3	96	69.1	0	0	---	0.00	29.928 
01:10	70.3	70.3	70.3	96	69.1	0	0	---	0.00	29.928 
01:15	70.4	70.4	70.4	96	69.2	0	0	---	0.00	29.924 
01:20	70.4	70.4	70.4	96	69.2	0	0	---	0.00	29.924 
01:25	70.4	70.4	70.4	96	69.2	0	0	---	0.00	29.924 
01:30	70.6	70.6	70.6	96	69.4	0	0	---	0.00	29.925 
01:35	70.6	70.6	70.6	96	69.4	0	0	---	0.00	29.925 
01:40	70.6	70.6	70.6	96	69.4	0	0	---	0.00	29.925 
01:45	70.6	70.6	70.6	96	69.4	0	0	---	0.00	29.921 
01:50	70.6	70.6	70.6	96	69.4	0	0	---	0.00	29.921 
01:55	70.8	70.8	70.8	96	69.6	0	0	---	0.00	29.921 
02:00	70.8	70.8	70.8	96	69.6	0	0	---	0.00	29.923 
02:05	70.8	70.8	70.8	96	69.6	0	0	---	0.00	29.923 
02:10	70.9	70.9	70.9	96	69.7	0	0	---	0.00	29.923 
02:15	70.9	70.9	70.9	96	69.7	0	0	---	0.00	29.918 
02:20	70.9	70.9	70.9	96	69.7	0	0	---	0.00	29.918 
02:25	70.9	70.9	70.9	96	69.7	0	1	90	0.00	29.918 
02:30	70.9	70.9	70.9	96	69.7	0	0	---	0.00	29.916 
02:35	70.9	70.9	70.9	96	69.7	0	0	---	0.00	29.916 
02:40	70.9	70.9	70.9	96	69.7	0	1	90	0.00	29.916 
02:45	70.9	70.9	70.9	96	69.7	0	1	90	0.00	29.916 
02:50	70.8	70.8	70.8	96	69.6	0	0	---	0.00	29.916 
02:55	70.8	70.8	70.8	96	69.6	0	0	---	0.00	29.916 
03:00	70.8	70.8	70.8	96	69.6	0	0	---	0.00	29.915 
03:05	70.8	70.8	70.8	96	69.6	0	0	---	0.00	29.915 
03:10	70.8	70.8	70.8	96	69.6	0	0	---	0.00	29.915 
03:15	70.8	70.8	70.8	96	69.6	0	0	---	0.00	29.913 
03:20	70.8	70.8	70.8	96	69.6	0	0	---	0.00	29.913 
03:25	70.8	70.8	70.8	96	69.6	0	0	---	0.00	29.913 
03:30	70.8	70.8	70.8	96	69.6	0	0	---	0.00	29.916 
03:35	70.8	70.8	70.8	96	69.6	0	0	---	0.00	29.916 
03:40	70.8	70.8	70.8	96	69.6	0	0	---	0.00	29.916 
03:45	70.8	70.8	70.8	96	69.6	0	0	---	0.00	29.914 
03:50	70.9	70.9	70.9	96	69.7	0	0	---	0.00	29.914 
03:55	70.9	70.9	70.9	96	69.7	0	0	---	0.00	29.914 
04:00	70.9	70.9	70.9	96	69.7	0	0	---	0.00	29.910 
04:05	70.9	70.9	70.9	96	69.7	0	0	---	0.00	29.910 
04:10	70.9	70.9	70.9	96	69.7	0	0	---	0.00	29.910 
04:15	70.9	70.9	70.9	96	69.7	0	0	---	0.00	29.914 
04:20	70.9	70.9	70.9	96	69.7	0	0	---	0.00	29.914 
04:25	70.9	70.9	70.9	96	69.7	0	0	---	0.00	29.914 
04:30	70.9	70.9	70.9	96	69.7	0	0	---	0.00	29.912 
04:35	70.9	70.9	70.9	96	69.7	0	0	---	0.00	29.912 
04:40	70.9	70.9	70.9	96	69.7	0	0	---	0.00	29.912 
04:45	70.9	70.9	70.9	96	69.7	0	1	90	0.00	29.917 
04:50	70.9	70.9	70.9	96	69.7	0	1	90	0.00	29.917 
04:55	70.9	70.9	70.9	96	69.7	0	1	90	0.00	29.917 
05:00	70.9	70.9	70.9	96	69.7	0	0	---	0.00	29.914 
05:05	70.9	70.9	70.9	96	69.7	0	0	---	0.00	29.914 
05:10	70.9	70.9	70.9	96	69.7	0	0	---	0.00	29.914 
05:15	70.9	70.9	70.9	96	69.7	0	1	90	0.00	29.919 
05:20	70.9	70.9	70.9	96	69.7	0	1	90	0.00	29.919 
05:25	70.9	70.9	70.9	96	69.7	0	1	90	0.00	29.919 
05:30	70.9	70.9	70.9	96	69.7	0	1	90	0.00	29.919 
05:35	70.9	70.9	70.9	96	69.7	0	1	90	0.00	29.919 
05:40	70.9	70.9	70.9	96	69.7	0	1	90	0.00	29.919 
05:45	70.9	70.9	70.9	96	69.7	0	1	90	0.00	29.921 
05:50	70.9	70.9	70.9	96	69.7	0	2	90	0.00	29.921 
05:55	70.8	70.8	70.8	96	69.6	0	1	90	0.00	29.921 
06:00	70.8	70.8	70.8	96	69.6	0	0	---	0.00	29.919 
06:05	70.6	70.6	70.6	96	69.4	0	2	90	0.00	29.919 
06:10	70.4	70.4	70.4	96	69.2	0	0	---	0.00	29.919 
06:15	70.4	70.4	70.4	96	69.2	0	0	---	0.00	29.923 
06:20	70.4	70.4	70.4	96	69.2	0	0	---	0.00	29.923 
06:25	70.4	70.4	70.4	96	69.2	0	0	---	0.00	29.923 
06:30	70.4	70.4	70.4	96	69.2	0	2	90	0.00	29.921 
06:35	70.4	70.4	70.4	96	69.2	0	2	90	0.00	29.921 
06:40	70.4	70.4	70.4	96	69.2	0	1	90	0.00	29.921 
06:45	70.4	70.4	70.4	96	69.2	0	2	90	0.00	29.923 
06:50	70.6	70.6	70.6	96	69.4	0	1	90	0.00	29.923 
06:55	70.6	70.6	70.6	96	69.4	0	2	90	0.00	29.923 
07:00	70.6	70.6	70.6	96	69.4	0	2	90	0.00	29.920 
07:05	70.6	70.6	70.6	96	69.4	0	3	90	0.00	29.920 
07:10	70.6	70.6	70.6	96	69.4	0	0	---	0.00	29.920 
07:15	70.8	70.8	70.8	96	69.6	0	1	90	0.00	29.921 
07:20	70.8	70.8	70.8	96	69.6	0	1	90	0.00	29.921 
07:25	70.8	70.8	70.8	96	69.6	0	2	22	0.00	29.921 
07:30	70.9	70.9	70.9	96	69.7	0	1	22	0.00	29.921 
07:35	70.9	70.9	70.9	96	69.7	0	1	22	0.00	29.921 
07:40	70.9	70.9	70.9	96	69.7	0	2	22	0.00	29.921 
07:45	71.1	71.1	71.1	96	69.9	0	2	22	0.00	29.921 
07:50	71.3	71.3	71.3	96	70.1	0	1	22	0.00	29.921 
07:55	71.3	71.3	71.3	96	70.1	0	3	0	0.00	29.921 
08:00	71.3	71.3	71.3	96	70.1	0	2	0	0.00	29.922 
08:05	71.3	71.3	71.3	95	69.8	1	3	292	0.00	29.922 
08:10	71.5	71.5	71.5	95	70.0	0	2	292	0.00	29.922 
08:15	71.5	71.5	71.5	95	70.0	0	2	292	0.00	29.932 
08:20	71.6	71.6	71.6	95	70.1	0	2	292	0.00	29.932 
08:25	71.5	71.5	71.5	95	70.0	1	4	292	0.00	29.932 
08:30	71.6	71.6	71.6	95	70.1	1	4	292	0.00	29.933 
08:35	71.8	71.8	71.8	94	70.0	0	2	292	0.00	29.933 
08:40	72.3	72.3	72.3	94	70.5	0	2	292	0.00	29.933 
08:45	72.7	72.7	72.7	94	70.9	0	3	292	0.00	29.923 
08:50	72.8	72.8	72.8	92	70.3	1	4	292	0.00	29.923 
08:55	73.0	73.0	73.0	92	70.5	1	4	292	0.00	29.923 
09:00	73.3	73.3	73.3	92	70.8	0	1	292	0.00	29.929 
09:05	73.5	73.5	73.5	91	70.7	0	2	292	0.00	29.929 
09:10	73.5	73.5	73.5	89	70.0	1	3	270	0.00	29.929 
09:15	73.5	73.5	73.5	88	69.7	1	4	270	0.00	29.932 
09:20	73.5	73.5	73.5	88	69.7	0	1	270	0.00	29.932 
09:25	73.7	73.7	73.7	87	69.6	1	4	270	0.00	29.932 
09:30	74.0	74.0	74.0	87	69.9	1	4	270	0.00	29.933 
09:35	74.2	74.2	74.2	86	69.7	1	3	270	0.00	29.933 
09:40	74.6	74.6	74.6	85	69.8	1	3	270	0.00	29.933 
09:45	74.9	74.9	74.9	85	70.1	0	3	270	0.00	29.936 
09:50	74.9	74.9	74.9	84	69.7	2	4	270	0.00	29.936 
09:55	75.1	75.1	75.2	84	69.9	0	3	270	0.00	29.936 
10:00	74.9	74.9	74.9	83	69.4	0	2	270	0.00	29.939 
10:05	74.9	74.9	74.9	83	69.4	1	4	270	0.00	29.939 
10:10	74.9	74.9	74.9	83	69.4	1	3	270	0.00	29.939 
10:15	75.1	75.1	75.2	84	69.9	1	3	270	0.00	29.942 
10:20	75.3	75.3	75.6	83	69.8	1	3	270	0.00	29.942 
10:25	75.8	75.8	76.5	82	69.9	1	3	270	0.00	29.942 
10:30	76.1	76.1	77.0	82	70.2	1	5	68	0.00	29.937 
10:35	76.5	76.5	77.7	81	70.2	1	5	292	0.00	29.937 
10:40	76.7	76.7	78.0	81	70.4	1	3	292	0.00	29.937 
10:45	77.0	77.0	78.6	80	70.3	1	3	292	0.00	29.935 
10:50	77.2	77.2	78.9	79	70.2	2	5	292	0.00	29.935 
10:55	77.4	77.4	79.2	80	70.7	1	3	292	0.00	29.935 
11:00	77.4	77.4	79.2	80	70.7	0	3	292	0.00	29.933 
11:05	77.7	77.7	79.7	78	70.3	1	4	292	0.00	29.933 
11:10	78.3	78.3	80.8	79	71.2	1	3	68	0.00	29.933 
11:15	79.0	79.0	82.1	79	71.9	0	2	68	0.00	29.928 
11:20	79.2	79.2	82.2	76	71.0	1	4	68	0.00	29.928 
11:25	78.5	78.5	81.0	75	69.9	1	4	292	0.00	29.928 
11:30	77.9	77.9	80.0	76	69.7	1	3	292	0.00	29.932 
11:35	77.7	77.7	79.7	77	69.9	2	4	292	0.00	29.932 
11:40	77.6	77.6	79.6	79	70.6	1	4	292	0.00	29.932 
11:45	77.9	77.9	80.1	78	70.5	1	3	292	0.00	29.933 
11:50	77.9	77.9	80.1	78	70.5	1	3	292	0.00	29.933 
11:55	78.3	78.3	80.8	79	71.2	1	3	292	0.00	29.933 
12:00	78.5	78.5	81.1	77	70.7	1	4	292	0.00	29.935 
12:05	78.8	78.8	81.6	77	71.0	2	5	292	0.00	29.935 
12:10	79.6	79.6	83.1	77	71.7	1	4	292	0.00	29.935 
12:15	79.8	79.8	83.1	74	70.8	1	3	292	0.00	29.932 
12:20	80.1	80.1	83.8	75	71.4	1	3	292	0.00	29.932 
12:25	80.5	80.5	84.7	76	72.2	1	5	292	0.00	29.932 
12:30	80.5	80.5	84.2	73	71.0	2	4	292	0.00	29.929 
12:35	80.9	80.9	85.0	73	71.4	1	6	270	0.00	29.929 
12:40	80.7	80.7	84.4	72	70.8	1	5	270	0.00	29.929 
12:45	80.5	80.5	84.2	73	71.0	1	3	270	0.00	29.930 
12:50	80.9	80.9	85.0	73	71.4	1	4	270	0.00	29.930 
12:55	81.6	81.6	85.9	71	71.3	1	4	270	0.00	29.930 
13:00	81.6	81.6	85.5	69	70.4	2	5	270	0.00	29.925 
13:05	81.2	81.2	84.8	69	70.0	3	6	270	0.00	29.925 
13:10	81.4	81.4	85.1	69	70.2	2	4	270	0.00	29.925 
13:15	81.8	81.8	86.3	71	71.5	1	4	270	0.00	29.920 
13:20	81.8	81.8	85.9	69	70.6	1	3	270	0.00	29.920 
13:25	82.2	82.2	87.0	71	71.8	1	3	270	0.00	29.920 
13:30	82.6	82.6	87.3	69	71.4	1	4	270	0.00	29.913 
13:35	83.0	83.0	87.9	68	71.3	1	4	270	0.00	29.913 
13:40	82.4	82.4	86.7	68	70.8	1	4	292	0.00	29.913 
13:45	82.2	82.2	87.0	71	71.8	1	4	292	0.00	29.910 
13:50	82.4	82.4	86.7	68	70.8	1	5	292	0.00	29.910 
13:55	82.6	82.6	87.1	68	70.9	2	5	292	0.00	29.910 
14:00	82.6	82.6	87.1	68	70.9	3	6	292	0.00	29.908 
14:05	83.0	83.0	87.6	67	70.9	1	6	270	0.00	29.908 
14:10	83.2	83.2	88.0	67	71.1	1	4	270	0.00	29.908 
14:15	83.4	83.4	87.8	65	70.4	2	6	270	0.00	29.900 
14:20	83.0	83.0	87.1	65	70.0	2	5	292	0.00	29.900 
14:25	82.8	82.8	87.5	68	71.1	2	5	292	0.00	29.900 
14:30	83.0	83.0	86.9	64	69.5	3	6	292	0.00	29.896 
14:35	83.2	83.2	87.5	65	70.2	1	4	292	0.00	29.896 
14:40	83.2	83.2	87.5	65	70.2	1	4	292	0.00	29.896 
14:45	83.0	83.0	86.9	64	69.5	2	7	270	0.00	29.894 
14:50	83.4	83.4	87.8	65	70.4	1	3	270	0.00	29.894 
14:55	83.6	83.6	87.9	64	70.1	2	6	292	0.00	29.894 
15:00	83.8	83.8	88.3	64	70.3	2	5	292	0.00	29.888 
15:05	84.0	84.0	88.4	63	70.0	2	4	292	0.00	29.888 
15:10	84.0	84.0	88.4	63	70.0	1	3	292	0.00	29.888 
15:15	84.0	84.0	88.1	62	69.5	2	7	292	0.00	29.886 
15:20	84.1	84.1	88.0	61	69.2	1	4	270	0.00	29.886 
15:25	84.1	84.1	87.7	60	68.7	2	5	315	0.00	29.886 
15:30	84.0	84.0	87.8	61	69.1	2	6	270	0.00	29.887 
15:35	84.0	84.0	88.4	63	70.0	2	5	270	0.00	29.887 
15:40	84.1	84.1	88.5	63	70.1	1	3	270	0.00	29.887 
15:45	84.1	84.1	88.2	62	69.6	2	5	270	0.00	29.891 
15:50	84.0	84.0	88.1	62	69.5	2	4	270	0.00	29.891 
15:55	83.8	83.8	87.5	61	68.9	3	6	292	0.00	29.891 
16:00	84.1	84.1	88.2	62	69.6	2	4	270	0.00	29.883 
16:05	84.3	84.3	88.6	62	69.8	1	5	292	0.00	29.883 
16:10	84.1	84.1	88.0	61	69.2	1	5	292	0.00	29.883 
16:15	84.0	84.0	88.4	63	70.0	1	3	292	0.00	29.876 
16:20	83.8	83.8	88.3	64	70.3	1	4	292	0.00	29.876 
16:25	83.4	83.4	87.6	64	69.9	1	4	292	0.00	29.876 
16:30	83.2	83.2	87.5	65	70.2	1	3	292	0.00	29.868 
16:35	83.2	83.2	87.7	66	70.6	1	3	292	0.00	29.868 
16:40	83.2	83.2	87.7	66	70.6	1	3	292	0.00	29.868 
16:45	83.0	83.0	87.1	65	70.0	1	4	292	0.00	29.862 
16:50	82.8	82.8	87.0	66	70.3	1	4	292	0.00	29.862 
16:55	82.4	82.4	86.5	67	70.3	1	3	292	0.00	29.862 
17:00	82.0	82.0	85.8	67	69.9	1	6	292	0.00	29.861 
17:05	80.7	80.7	83.5	66	68.3	1	7	270	0.00	29.861 
17:10	79.0	79.0	81.2	67	67.1	0	2	338	0.00	29.861 
17:15	77.7	77.7	79.6	69	66.7	0	1	338	0.00	29.877 
17:20	77.0	77.0	78.8	71	66.9	0	1	338	0.00	29.877 
17:25	76.5	76.5	78.1	72	66.8	0	1	338	0.00	29.877 
17:30	76.3	76.3	77.8	73	67.0	0	1	338	0.00	29.885 
17:35	76.3	76.3	77.8	74	67.4	1	7	338	0.00	29.885 
17:40	76.1	76.1	77.5	75	67.6	4	11	270	0.02	29.885 
17:45	73.3	73.3	73.3	80	66.7	4	9	270	0.06	29.919 
17:50	71.5	71.5	71.5	84	66.4	3	9	270	0.00	29.919 
17:55	70.3	70.3	70.3	86	65.9	4	10	292	0.01	29.919 
18:00	69.4	69.4	69.4	87	65.4	4	12	270	0.00	29.928 
18:05	68.8	68.8	68.8	87	64.8	4	10	270	0.00	29.928 
18:10	67.9	67.9	67.9	87	63.9	3	10	270	0.01	29.928 
18:15	67.6	67.6	67.6	88	63.9	4	8	270	0.00	29.909 
18:20	67.6	67.6	67.6	89	64.2	2	6	270	0.01	29.909 
18:25	67.6	67.6	67.6	89	64.2	2	4	270	0.01	29.909 
18:30	67.8	67.8	67.8	90	64.8	3	6	270	0.00	29.902 
18:35	67.9	67.9	67.9	90	64.9	3	6	292	0.01	29.902 
18:40	68.1	68.1	68.1	90	65.0	2	6	292	0.00	29.902 
18:45	68.3	68.3	68.3	90	65.2	1	3	292	0.00	29.894 
18:50	68.4	68.4	68.4	90	65.3	1	4	292	0.00	29.894 
18:55	68.6	68.6	68.6	90	65.5	1	3	292	0.00	29.894 
19:00	68.8	68.8	68.8	90	65.7	1	4	292	0.00	29.889 
19:05	68.9	68.9	68.9	90	65.8	2	5	292	0.00	29.889 
19:10	69.1	69.1	69.1	89	65.7	1	3	292	0.00	29.889 
19:15	69.3	69.3	69.3	89	65.9	1	3	292	0.00	29.884 
19:20	69.6	69.6	69.6	89	66.2	1	3	292	0.00	29.884 
19:25	69.6	69.6	69.6	89	66.2	1	3	292	0.00	29.884 
19:30	69.8	69.8	69.8	88	66.1	1	3	292	0.00	29.885 
19:35	69.9	69.9	69.9	88	66.2	1	3	270	0.00	29.885 
19:40	69.9	69.9	69.9	88	66.2	1	3	270	0.00	29.885 
19:45	70.3	70.3	70.3	87	66.2	1	3	270	0.00	29.891 
19:50	70.3	70.3	70.3	87	66.2	1	4	270	0.00	29.891 
19:55	70.3	70.3	70.3	87	66.2	2	4	270	0.00	29.891 
20:00	70.4	70.4	70.4	86	66.0	1	4	270	0.00	29.897 
20:05	70.4	70.4	70.4	86	66.0	0	2	270	0.00	29.897 
20:10	70.4	70.4	70.4	86	66.0	0	3	270	0.00	29.897 
20:15	70.4	70.4	70.4	87	66.3	0	2	270	0.00	29.895 
20:20	70.4	70.4	70.4	87	66.3	0	1	270	0.00	29.895 
20:25	70.4	70.4	70.4	87	66.3	0	1	270	0.00	29.895 
20:30	70.4	70.4	70.4	87	66.3	0	2	270	0.00	29.905 
20:35	70.4	70.4	70.4	88	66.7	0	2	270	0.00	29.905 
20:40	70.4	70.4	70.4	88	66.7	0	1	270	0.00	29.905 
20:45	70.3	70.3	70.3	88	66.6	0	1	270	0.00	29.907 
20:50	70.3	70.3	70.3	88	66.6	0	1	270	0.00	29.907 
20:55	70.3	70.3	70.3	88	66.6	0	0	---	0.00	29.907 
21:00	70.1	70.1	70.1	88	66.4	0	0	---	0.00	29.906 
21:05	70.1	70.1	70.1	89	66.7	0	0	---	0.00	29.906 
21:10	69.9	69.9	69.9	89	66.5	0	0	---	0.00	29.906 
21:15	69.9	69.9	69.9	89	66.5	0	0	---	0.00	29.904 
21:20	69.8	69.8	69.8	89	66.4	0	0	---	0.00	29.904 
21:25	69.8	69.8	69.8	89	66.4	0	1	270	0.00	29.904 
21:30	69.8	69.8	69.8	90	66.7	0	0	---	0.00	29.916 
21:35	69.6	69.6	69.6	90	66.5	0	0	---	0.00	29.916 
21:40	69.6	69.6	69.6	90	66.5	0	0	---	0.00	29.916 
21:45	69.6	69.6	69.6	90	66.5	0	0	---	0.00	29.924 
21:50	69.6	69.6	69.6	90	66.5	0	0	---	0.00	29.924 
21:55	69.4	69.4	69.4	91	66.7	0	0	---	0.00	29.924 
22:00	69.4	69.4	69.4	91	66.7	0	0	---	0.00	29.934 
22:05	69.4	69.4	69.4	91	66.7	0	0	---	0.00	29.934 
22:10	69.4	69.4	69.4	91	66.7	0	0	---	0.00	29.934 
22:15	69.4	69.4	69.4	91	66.7	0	0	---	0.00	29.940 
22:20	69.4	69.4	69.4	92	67.0	0	0	---	0.00	29.940 
22:25	69.4	69.4	69.4	92	67.0	0	0	---	0.00	29.940 
22:30	69.4	69.4	69.4	92	67.0	0	0	---	0.00	29.948 
22:35	69.4	69.4	69.4	92	67.0	0	0	---	0.00	29.948 
22:40	69.4	69.4	69.4	92	67.0	0	0	---	0.00	29.948 
22:45	69.4	69.4	69.4	92	67.0	0	1	270	0.00	29.946 
22:50	69.4	69.4	69.4	92	67.0	0	1	270	0.00	29.946 
22:55	69.4	69.4	69.4	92	67.0	0	0	---	0.00	29.946 
23:00	69.4	69.4	69.4	92	67.0	0	1	270	0.00	29.940 
23:05	69.4	69.4	69.4	92	67.0	0	1	270	0.00	29.940 
23:10	69.4	69.4	69.4	92	67.0	0	0	---	0.00	29.940 
23:15	69.4	69.4	69.4	92	67.0	0	0	---	0.00	29.933 
23:20	69.3	69.3	69.3	92	66.9	0	0	---	0.00	29.933 
23:25	69.3	69.3	69.3	92	66.9	0	0	---	0.00	29.933 
23:30	69.1	69.1	69.1	92	66.7	0	0	---	0.00	29.933 
23:35	69.1	69.1	69.1	92	66.7	0	0	---	0.00	29.933 
23:40	69.1	69.1	69.1	92	66.7	0	0	---	0.00	29.933 
23:45	68.9	68.9	68.9	92	66.5	0	0	---	0.00	29.932 
23:50	68.8	68.8	68.8	92	66.4	0	0	---	0.00	29.932 
23:55	68.8	68.8	68.8	93	66.7	0	0	---	0.00	29.932 

CoCoRaHS
IN-AL-39
A2 Web Hosting
Creative Commons License
GoDaddy
search engine by freefind advanced

loaded 2018-11-21 00:54:22 • last modified 2010-11-18 10:43:29
Privacy PolicyDisclaimer
• wx.awcolley.com is powered by PmWiki v.2002016 •
• all content (unless otherwise noted) © 2018 A W Colley